Atalandi — SVBA — position and weather

sailwx.info

Track history (hours):
 
Tides and Currents Weather Stations Pressure Air Temp Water Temp Dewpoint Dewpoint Depression Visibility Wind Speed Wind Dir Waves Ship Positions

Atalandi

Last reported at 2015-Sep-04 20:17 UTC. Time now 2015-Sep-04 23:10 UTC.
Position N 44°34' E 037°39'.

Length 248 m; draft 8.5 m.

Type: Ship. MMSI: 240269000.

Date/timePositionNaut miles runAvg speedWind from/ knotsBaromVisibWave heightAir tempDewpointWater temp
2015-Sep-04 20:17N 44°34' E 037°39'4 5.0
2015-Sep-04 19:33N 44°32' E 037°34'1 0.6
2015-Sep-04 18:33N 44°32' E 037°35'1 0.7
2015-Sep-04 17:33N 44°32' E 037°36'1 0.5
2015-Sep-04 16:33N 44°32' E 037°36'1010.1
2015-Sep-04 15:33N 44°34' E 037°50'3 0.5
2015-Sep-04 09:24N 44°35' E 037°55'0 0.0
2015-Sep-03 17:15N 44°34' E 037°55'0 0.1
2015-Sep-03 16:33N 44°34' E 037°55'0 0.0
2015-Sep-03 15:33N 44°34' E 037°55'0 0.0
2015-Sep-03 14:33N 44°34' E 037°55'0 0.0
2015-Sep-03 13:33N 44°34' E 037°55'0 0.1
2015-Sep-03 12:33N 44°34' E 037°55'0 0.1
2015-Sep-03 10:33N 44°35' E 037°54'0 0.0
2015-Sep-03 09:33N 44°35' E 037°54'0 0.0
2015-Sep-03 08:30N 44°35' E 037°54'0 0.1
2015-Sep-03 07:33N 44°35' E 037°55'0 0.0
2015-Sep-03 06:33N 44°35' E 037°55'0 0.1
2015-Sep-03 05:33N 44°35' E 037°54'0 0.1
2015-Sep-03 04:15N 44°34' E 037°54'0 0.2
2015-Sep-03 03:33N 44°34' E 037°55'0 0.1
2015-Sep-03 02:33N 44°35' E 037°55'0 0.1
2015-Sep-03 01:33N 44°34' E 037°55'0 0.0
2015-Sep-03 00:33N 44°34' E 037°55'0 0.0
2015-Sep-02 23:33N 44°34' E 037°55'0 0.0
2015-Sep-02 22:33N 44°34' E 037°55'0 0.0
2015-Sep-02 21:33N 44°35' E 037°55'0 0.0
2015-Sep-02 20:33N 44°35' E 037°55'0 0.0
2015-Sep-02 19:33N 44°35' E 037°55'0 0.0
2015-Sep-02 18:33N 44°35' E 037°55'0 0.0
2015-Sep-02 17:30N 44°35' E 037°55'0 0.0
2015-Sep-02 16:33N 44°35' E 037°55'0 0.0
2015-Sep-02 15:33N 44°35' E 037°55'0 0.0
2015-Sep-02 14:33N 44°35' E 037°55'0 0.1
2015-Sep-02 13:33N 44°35' E 037°54'0 0.0
2015-Sep-02 12:33N 44°35' E 037°54'0 0.0
2015-Sep-02 11:33N 44°35' E 037°54'0 0.0
2015-Sep-02 10:33N 44°35' E 037°54'0 0.0
2015-Sep-02 09:33N 44°35' E 037°54'0 0.0
2015-Sep-02 03:33N 44°34' E 037°54'0 0.0
2015-Sep-02 02:33N 44°34' E 037°54'0 0.1
2015-Sep-02 01:33N 44°34' E 037°55'0 0.0
2015-Sep-02 00:33N 44°34' E 037°55'0 0.0
2015-Sep-01 23:33N 44°34' E 037°55'0 0.0
2015-Sep-01 22:33N 44°34' E 037°55'0 0.0
2015-Sep-01 21:33N 44°34' E 037°55'0 0.0
2015-Sep-01 20:33N 44°34' E 037°55'0 0.0
2015-Sep-01 19:33N 44°34' E 037°55'0 0.0
2015-Sep-01 18:33N 44°34' E 037°55'0 0.0
2015-Sep-01 17:33N 44°34' E 037°55'0 0.0
2015-Sep-01 16:33N 44°34' E 037°55'0 0.0
2015-Sep-01 15:33N 44°34' E 037°55'0 0.0
2015-Sep-01 14:33N 44°34' E 037°55'0 0.0
2015-Sep-01 13:33N 44°34' E 037°55'0 0.0
2015-Sep-01 12:33N 44°34' E 037°55'0 0.0
2015-Sep-01 11:33N 44°34' E 037°55'0 0.0
2015-Sep-01 10:33N 44°34' E 037°55'0 0.0
2015-Sep-01 09:33N 44°34' E 037°55'0 0.0
2015-Sep-01 08:33N 44°34' E 037°55'0 0.0
2015-Sep-01 07:33N 44°34' E 037°55'0 0.0
2015-Sep-01 06:33N 44°34' E 037°55'0 0.0
2015-Sep-01 05:33N 44°34' E 037°55'0 0.0
2015-Sep-01 04:33N 44°34' E 037°55'0 0.0
2015-Sep-01 03:09N 44°34' E 037°55'0 0.0
2015-Sep-01 02:33N 44°34' E 037°55'0 0.0
2015-Aug-31 23:06N 44°34' E 037°55'0 0.0
2015-Aug-31 03:33N 44°34' E 037°54'0 0.0
2015-Aug-31 02:33N 44°34' E 037°54'0 0.0
2015-Aug-31 01:33N 44°34' E 037°54'0 0.0
2015-Aug-31 00:33N 44°34' E 037°54'0 0.0
2015-Aug-30 23:30N 44°34' E 037°54'0 0.0
2015-Aug-30 22:33N 44°34' E 037°54'0 0.0
2015-Aug-30 21:33N 44°34' E 037°54'0 0.0
2015-Aug-30 20:33N 44°34' E 037°54'0 0.0
2015-Aug-30 19:33N 44°34' E 037°54'0 0.0
2015-Aug-30 14:12N 44°34' E 037°55'0 0.0
2015-Aug-30 13:33N 44°34' E 037°55'0 0.0
2015-Aug-30 12:33N 44°34' E 037°55'0 0.0
2015-Aug-30 11:33N 44°34' E 037°55'0 0.0
2015-Aug-30 10:33N 44°34' E 037°55'0 0.0
2015-Aug-30 09:33N 44°34' E 037°55'0 0.0
2015-Aug-30 08:33N 44°34' E 037°55'0 0.1
2015-Aug-30 07:33N 44°34' E 037°55'0 0.0
2015-Aug-30 06:33N 44°34' E 037°55'0 0.1
2015-Aug-30 05:33N 44°34' E 037°55'0 0.1
2015-Aug-30 04:33N 44°34' E 037°54'0 0.0
2015-Aug-30 03:33N 44°34' E 037°54'0 0.0
2015-Aug-30 02:33N 44°34' E 037°55'0 0.0
2015-Aug-30 01:33N 44°34' E 037°55'0 0.0
2015-Aug-30 00:33N 44°34' E 037°55'0 0.0
2015-Aug-29 23:33N 44°34' E 037°55'0 0.0
2015-Aug-29 22:33N 44°34' E 037°55'0 0.0
2015-Aug-29 21:33N 44°34' E 037°55'0 0.0
2015-Aug-29 20:33N 44°34' E 037°55'0 0.0
2015-Aug-29 19:33N 44°34' E 037°55'0 0.1
2015-Aug-29 18:33N 44°34' E 037°55'0 0.1
2015-Aug-29 17:33N 44°34' E 037°55'0 0.1
2015-Aug-29 16:33N 44°35' E 037°55'0 0.0
2015-Aug-29 15:33N 44°35' E 037°55'0 0.0
2015-Aug-29 14:33N 44°35' E 037°55'0 0.0
2015-Aug-29 13:33N 44°35' E 037°55'0 0.0
2015-Aug-29 12:33N 44°35' E 037°55'0 0.0
2015-Aug-29 11:33N 44°35' E 037°55'0 0.0
2015-Aug-29 10:33N 44°35' E 037°55'0 0.0
2015-Aug-29 09:30N 44°35' E 037°54'0 0.1
2015-Aug-29 08:30N 44°35' E 037°54'0 0.1
2015-Aug-29 07:33N 44°34' E 037°54'0 0.0
2015-Aug-29 06:33N 44°34' E 037°54'0 0.0
2015-Aug-29 05:33N 44°34' E 037°54'0 0.0
2015-Aug-29 04:33N 44°34' E 037°54'0 0.0
2015-Aug-29 03:33N 44°34' E 037°54'0 0.0
2015-Aug-29 02:33N 44°34' E 037°54'0 0.0
2015-Aug-29 01:33N 44°34' E 037°54'0 0.0
2015-Aug-29 00:33N 44°34' E 037°54'0 0.0
2015-Aug-28 23:33N 44°34' E 037°54'0 0.1
2015-Aug-28 22:33N 44°34' E 037°54'0 0.0
2015-Aug-28 21:33N 44°34' E 037°54'0 0.0
2015-Aug-28 20:33N 44°34' E 037°54'0 0.0
2015-Aug-28 19:33N 44°34' E 037°54'0 0.0
2015-Aug-28 18:33N 44°34' E 037°54'0 0.0
2015-Aug-28 17:33N 44°34' E 037°54'0 0.0
2015-Aug-28 16:33N 44°34' E 037°54'0 0.0
2015-Aug-28 15:33N 44°34' E 037°54'0 0.0
2015-Aug-28 14:33N 44°34' E 037°54'0 0.0
2015-Aug-28 13:33N 44°34' E 037°54'0 0.0
2015-Aug-28 12:33N 44°35' E 037°54'0 0.0
2015-Aug-28 11:33N 44°34' E 037°54'0 0.0
2015-Aug-28 10:33N 44°34' E 037°54'0 0.0
2015-Aug-28 09:33N 44°34' E 037°54'0 0.1
2015-Aug-28 08:33N 44°34' E 037°54'0 0.1
2015-Aug-28 07:33N 44°34' E 037°54'0 0.0
2015-Aug-28 06:33N 44°34' E 037°54'32 1.2
2015-Aug-27 04:33N 44°19' E 037°15'10 5.0
2015-Aug-27 02:33N 44°14' E 037°02'6 4.8
2015-Aug-27 01:16N 44°11' E 036°55'3 4.6
2015-Aug-27 00:33N 44°10' E 036°51'4 4.2
2015-Aug-26 23:33N 44°08' E 036°46'4 4.1
2015-Aug-26 22:33N 44°06' E 036°41'4 4.1
2015-Aug-26 21:33N 44°04' E 036°36'4 4.1
2015-Aug-26 20:32N 44°02' E 036°31'4 3.9
2015-Aug-26 19:33N 44°00' E 036°26'4 3.9
2015-Aug-26 18:32N 43°58' E 036°21'14 4.2
2015-Aug-26 15:20N 43°53' E 036°04'4 4.5
2015-Aug-26 14:30N 43°51' E 035°59'4 4.6
2015-Aug-26 13:33N 43°49' E 035°54'  
Track history (hours):
 
Tides and Currents Weather Stations Pressure Air Temp Water Temp Dewpoint Dewpoint Depression Visibility Wind Speed Wind Dir Waves Ship Positions

Atalandi

Last reported at 2015-Sep-04 20:17 UTC. Time now 2015-Sep-04 23:10 UTC.
Position N 44°34' E 037°39'.

Length 248 m; draft 8.5 m.

Type: Ship. MMSI: 240269000.

Date/timePositionNaut miles runAvg speedWind from/ knotsBaromVisibWave heightAir tempDewpointWater temp
2015-Sep-04 20:17N 44°34' E 037°39'4 5.0
2015-Sep-04 19:33N 44°32' E 037°34'1 0.6
2015-Sep-04 18:33N 44°32' E 037°35'1 0.7
2015-Sep-04 17:33N 44°32' E 037°36'1 0.5
2015-Sep-04 16:33N 44°32' E 037°36'1010.1
2015-Sep-04 15:33N 44°34' E 037°50'3 0.5
2015-Sep-04 09:24N 44°35' E 037°55'0 0.0
2015-Sep-03 17:15N 44°34' E 037°55'0 0.1
2015-Sep-03 16:33N 44°34' E 037°55'0 0.0
2015-Sep-03 15:33N 44°34' E 037°55'0 0.0
2015-Sep-03 14:33N 44°34' E 037°55'0 0.0
2015-Sep-03 13:33N 44°34' E 037°55'0 0.1
2015-Sep-03 12:33N 44°34' E 037°55'0 0.1
2015-Sep-03 10:33N 44°35' E 037°54'0 0.0
2015-Sep-03 09:33N 44°35' E 037°54'0 0.0
2015-Sep-03 08:30N 44°35' E 037°54'0 0.1
2015-Sep-03 07:33N 44°35' E 037°55'0 0.0
2015-Sep-03 06:33N 44°35' E 037°55'0 0.1
2015-Sep-03 05:33N 44°35' E 037°54'0 0.1
2015-Sep-03 04:15N 44°34' E 037°54'0 0.2
2015-Sep-03 03:33N 44°34' E 037°55'0 0.1
2015-Sep-03 02:33N 44°35' E 037°55'0 0.1
2015-Sep-03 01:33N 44°34' E 037°55'0 0.0
2015-Sep-03 00:33N 44°34' E 037°55'0 0.0
2015-Sep-02 23:33N 44°34' E 037°55'0 0.0
2015-Sep-02 22:33N 44°34' E 037°55'0 0.0
2015-Sep-02 21:33N 44°35' E 037°55'0 0.0
2015-Sep-02 20:33N 44°35' E 037°55'0 0.0
2015-Sep-02 19:33N 44°35' E 037°55'0 0.0
2015-Sep-02 18:33N 44°35' E 037°55'0 0.0
2015-Sep-02 17:30N 44°35' E 037°55'0 0.0
2015-Sep-02 16:33N 44°35' E 037°55'0 0.0
2015-Sep-02 15:33N 44°35' E 037°55'0 0.0
2015-Sep-02 14:33N 44°35' E 037°55'0 0.1
2015-Sep-02 13:33N 44°35' E 037°54'0 0.0
2015-Sep-02 12:33N 44°35' E 037°54'0 0.0
2015-Sep-02 11:33N 44°35' E 037°54'0 0.0
2015-Sep-02 10:33N 44°35' E 037°54'0 0.0
2015-Sep-02 09:33N 44°35' E 037°54'0 0.0
2015-Sep-02 03:33N 44°34' E 037°54'0 0.0
2015-Sep-02 02:33N 44°34' E 037°54'0 0.1
2015-Sep-02 01:33N 44°34' E 037°55'0 0.0
2015-Sep-02 00:33N 44°34' E 037°55'0 0.0
2015-Sep-01 23:33N 44°34' E 037°55'0 0.0
2015-Sep-01 22:33N 44°34' E 037°55'0 0.0
2015-Sep-01 21:33N 44°34' E 037°55'0 0.0
2015-Sep-01 20:33N 44°34' E 037°55'0 0.0
2015-Sep-01 19:33N 44°34' E 037°55'0 0.0
2015-Sep-01 18:33N 44°34' E 037°55'0 0.0
2015-Sep-01 17:33N 44°34' E 037°55'0 0.0
2015-Sep-01 16:33N 44°34' E 037°55'0 0.0
2015-Sep-01 15:33N 44°34' E 037°55'0 0.0
2015-Sep-01 14:33N 44°34' E 037°55'0 0.0
2015-Sep-01 13:33N 44°34' E 037°55'0 0.0
2015-Sep-01 12:33N 44°34' E 037°55'0 0.0
2015-Sep-01 11:33N 44°34' E 037°55'0 0.0
2015-Sep-01 10:33N 44°34' E 037°55'0 0.0
2015-Sep-01 09:33N 44°34' E 037°55'0 0.0
2015-Sep-01 08:33N 44°34' E 037°55'0 0.0
2015-Sep-01 07:33N 44°34' E 037°55'0 0.0
2015-Sep-01 06:33N 44°34' E 037°55'0 0.0
2015-Sep-01 05:33N 44°34' E 037°55'0 0.0
2015-Sep-01 04:33N 44°34' E 037°55'0 0.0
2015-Sep-01 03:09N 44°34' E 037°55'0 0.0
2015-Sep-01 02:33N 44°34' E 037°55'0 0.0
2015-Aug-31 23:06N 44°34' E 037°55'0 0.0
2015-Aug-31 03:33N 44°34' E 037°54'0 0.0
2015-Aug-31 02:33N 44°34' E 037°54'0 0.0
2015-Aug-31 01:33N 44°34' E 037°54'0 0.0
2015-Aug-31 00:33N 44°34' E 037°54'0 0.0
2015-Aug-30 23:30N 44°34' E 037°54'0 0.0
2015-Aug-30 22:33N 44°34' E 037°54'0 0.0
2015-Aug-30 21:33N 44°34' E 037°54'0 0.0
2015-Aug-30 20:33N 44°34' E 037°54'0 0.0
2015-Aug-30 19:33N 44°34' E 037°54'0 0.0
2015-Aug-30 14:12N 44°34' E 037°55'0 0.0
2015-Aug-30 13:33N 44°34' E 037°55'0 0.0
2015-Aug-30 12:33N 44°34' E 037°55'0 0.0
2015-Aug-30 11:33N 44°34' E 037°55'0 0.0
2015-Aug-30 10:33N 44°34' E 037°55'0 0.0
2015-Aug-30 09:33N 44°34' E 037°55'0 0.0
2015-Aug-30 08:33N 44°34' E 037°55'0 0.1
2015-Aug-30 07:33N 44°34' E 037°55'0 0.0
2015-Aug-30 06:33N 44°34' E 037°55'0 0.1
2015-Aug-30 05:33N 44°34' E 037°55'0 0.1
2015-Aug-30 04:33N 44°34' E 037°54'0 0.0
2015-Aug-30 03:33N 44°34' E 037°54'0 0.0
2015-Aug-30 02:33N 44°34' E 037°55'0 0.0
2015-Aug-30 01:33N 44°34' E 037°55'0 0.0
2015-Aug-30 00:33N 44°34' E 037°55'0 0.0
2015-Aug-29 23:33N 44°34' E 037°55'0 0.0
2015-Aug-29 22:33N 44°34' E 037°55'0 0.0
2015-Aug-29 21:33N 44°34' E 037°55'0 0.0
2015-Aug-29 20:33N 44°34' E 037°55'0 0.0
2015-Aug-29 19:33N 44°34' E 037°55'0 0.1
2015-Aug-29 18:33N 44°34' E 037°55'0 0.1
2015-Aug-29 17:33N 44°34' E 037°55'0 0.1
2015-Aug-29 16:33N 44°35' E 037°55'0 0.0
2015-Aug-29 15:33N 44°35' E 037°55'0 0.0
2015-Aug-29 14:33N 44°35' E 037°55'0 0.0
2015-Aug-29 13:33N 44°35' E 037°55'0 0.0
2015-Aug-29 12:33N 44°35' E 037°55'0 0.0
2015-Aug-29 11:33N 44°35' E 037°55'0 0.0
2015-Aug-29 10:33N 44°35' E 037°55'0 0.0
2015-Aug-29 09:30N 44°35' E 037°54'0 0.1
2015-Aug-29 08:30N 44°35' E 037°54'0 0.1
2015-Aug-29 07:33N 44°34' E 037°54'0 0.0
2015-Aug-29 06:33N 44°34' E 037°54'0 0.0
2015-Aug-29 05:33N 44°34' E 037°54'0 0.0
2015-Aug-29 04:33N 44°34' E 037°54'0 0.0
2015-Aug-29 03:33N 44°34' E 037°54'0 0.0
2015-Aug-29 02:33N 44°34' E 037°54'0 0.0
2015-Aug-29 01:33N 44°34' E 037°54'0 0.0
2015-Aug-29 00:33N 44°34' E 037°54'0 0.0
2015-Aug-28 23:33N 44°34' E 037°54'0 0.1
2015-Aug-28 22:33N 44°34' E 037°54'0 0.0
2015-Aug-28 21:33N 44°34' E 037°54'0 0.0
2015-Aug-28 20:33N 44°34' E 037°54'0 0.0
2015-Aug-28 19:33N 44°34' E 037°54'0 0.0
2015-Aug-28 18:33N 44°34' E 037°54'0 0.0
2015-Aug-28 17:33N 44°34' E 037°54'0 0.0
2015-Aug-28 16:33N 44°34' E 037°54'0 0.0
2015-Aug-28 15:33N 44°34' E 037°54'0 0.0
2015-Aug-28 14:33N 44°34' E 037°54'0 0.0
2015-Aug-28 13:33N 44°34' E 037°54'0 0.0
2015-Aug-28 12:33N 44°35' E 037°54'0 0.0
2015-Aug-28 11:33N 44°34' E 037°54'0 0.0
2015-Aug-28 10:33N 44°34' E 037°54'0 0.0
2015-Aug-28 09:33N 44°34' E 037°54'0 0.1
2015-Aug-28 08:33N 44°34' E 037°54'0 0.1
2015-Aug-28 07:33N 44°34' E 037°54'0 0.0
2015-Aug-28 06:33N 44°34' E 037°54'32 1.2
2015-Aug-27 04:33N 44°19' E 037°15'10 5.0
2015-Aug-27 02:33N 44°14' E 037°02'6 4.8
2015-Aug-27 01:16N 44°11' E 036°55'3 4.6
2015-Aug-27 00:33N 44°10' E 036°51'4 4.2
2015-Aug-26 23:33N 44°08' E 036°46'4 4.1
2015-Aug-26 22:33N 44°06' E 036°41'4 4.1
2015-Aug-26 21:33N 44°04' E 036°36'4 4.1
2015-Aug-26 20:32N 44°02' E 036°31'4 3.9
2015-Aug-26 19:33N 44°00' E 036°26'4 3.9
2015-Aug-26 18:32N 43°58' E 036°21'14 4.2
2015-Aug-26 15:20N 43°53' E 036°04'4 4.5
2015-Aug-26 14:30N 43°51' E 035°59'4 4.6
2015-Aug-26 13:33N 43°49' E 035°54'  

Dump ship's entire track history